createdAt,value
2022-12-01T00:01:19.795Z,18.80
2022-12-01T00:03:46.967Z,16.10
2022-12-01T00:06:17.896Z,18.43
2022-12-01T00:09:06.747Z,24.80
2022-12-01T00:11:35.778Z,20.87
2022-12-01T00:14:03.124Z,21.87
2022-12-01T00:16:30.803Z,21.37
2022-12-01T00:18:57.863Z,20.50
2022-12-01T00:21:26.865Z,17.77
2022-12-01T00:23:56.554Z,26.37
2022-12-01T00:26:25.367Z,20.00
2022-12-01T00:28:55.385Z,21.13
2022-12-01T00:31:23.408Z,21.70
2022-12-01T00:33:50.881Z,20.77
2022-12-01T00:36:17.767Z,24.67
2022-12-01T00:38:44.803Z,23.10
2022-12-01T00:41:11.677Z,23.83
2022-12-01T00:43:39.719Z,25.20
2022-12-01T00:46:06.651Z,24.93
2022-12-01T00:48:33.802Z,25.90
2022-12-01T00:51:00.832Z,30.10
2022-12-01T00:53:27.746Z,25.30
2022-12-01T00:55:54.744Z,25.17
2022-12-01T00:58:22.970Z,25.13
2022-12-01T01:00:57.211Z,22.37
2022-12-01T01:03:24.078Z,24.93
2022-12-01T01:05:50.962Z,26.77
2022-12-01T01:08:18.038Z,23.73
2022-12-01T01:10:47.712Z,25.60
2022-12-01T01:13:15.356Z,25.87
2022-12-01T01:15:42.458Z,29.83
2022-12-01T01:18:12.490Z,25.50
2022-12-01T01:20:39.509Z,26.00
2022-12-01T01:23:06.626Z,28.03
2022-12-01T01:25:33.942Z,27.40
2022-12-01T01:28:00.926Z,27.50
2022-12-01T01:30:28.396Z,25.37
2022-12-01T01:32:55.365Z,30.20
2022-12-01T01:35:22.249Z,29.40
2022-12-01T01:37:50.889Z,27.70
2022-12-01T01:40:18.672Z,25.87
2022-12-01T01:42:45.717Z,25.77
2022-12-01T01:45:29.563Z,29.07
2022-12-01T01:47:59.426Z,28.83
2022-12-01T01:50:28.833Z,31.33
2022-12-01T01:53:01.670Z,27.40
2022-12-01T01:55:32.103Z,29.10
2022-12-01T01:57:59.754Z,29.77
2022-12-01T02:00:26.749Z,33.70
2022-12-01T02:02:53.818Z,36.47
2022-12-01T02:05:31.162Z,28.30
2022-12-01T02:07:59.758Z,29.10
2022-12-01T02:10:47.664Z,32.97
2022-12-01T02:13:47.163Z,33.20
2022-12-01T02:16:39.486Z,35.53
2022-12-01T02:19:50.026Z,30.40
2022-12-01T02:23:02.100Z,34.13
2022-12-01T02:26:08.138Z,31.20
2022-12-01T02:29:06.099Z,28.87
2022-12-01T02:32:23.982Z,31.60
2022-12-01T02:35:06.863Z,32.53
2022-12-01T02:37:36.462Z,29.37
2022-12-01T02:40:23.930Z,32.23
2022-12-01T02:43:07.200Z,30.73
2022-12-01T02:45:45.598Z,32.73
2022-12-01T02:48:19.414Z,32.63
2022-12-01T02:50:46.853Z,32.63
2022-12-01T02:53:17.628Z,29.57
2022-12-01T02:55:54.722Z,34.37
2022-12-01T02:58:21.966Z,29.10
2022-12-01T03:01:07.206Z,34.30
2022-12-01T03:03:52.880Z,28.70
2022-12-01T03:06:43.194Z,40.30
2022-12-01T03:09:39.635Z,25.73
2022-12-01T03:12:50.019Z,30.40
2022-12-01T03:15:38.777Z,30.87
2022-12-01T03:18:34.849Z,29.30
2022-12-01T03:21:33.826Z,30.40
2022-12-01T03:24:10.746Z,32.67
2022-12-01T03:26:41.222Z,26.43
2022-12-01T03:29:20.796Z,37.77
2022-12-01T03:32:52.718Z,31.20
2022-12-01T03:35:30.958Z,34.50
2022-12-01T03:38:04.574Z,31.20
2022-12-01T03:40:36.685Z,27.80
2022-12-01T03:43:09.796Z,30.90
2022-12-01T03:46:08.086Z,23.70
2022-12-01T03:48:35.237Z,27.60
2022-12-01T03:51:16.391Z,24.63
2022-12-01T03:53:57.170Z,18.37
2022-12-01T03:56:30.702Z,23.57
2022-12-01T03:59:00.380Z,22.90
2022-12-01T04:01:32.876Z,18.17
2022-12-01T04:04:10.501Z,22.23
2022-12-01T04:06:38.398Z,20.17
2022-12-01T04:09:05.378Z,19.27
2022-12-01T04:11:50.677Z,20.67
2022-12-01T04:14:17.620Z,20.17
2022-12-01T04:16:44.624Z,22.07
2022-12-01T04:19:11.847Z,20.63
2022-12-01T04:21:38.808Z,21.53
2022-12-01T04:24:06.130Z,18.70
2022-12-01T04:26:36.525Z,16.27
2022-12-01T04:29:10.539Z,17.00
2022-12-01T04:31:37.913Z,20.17
2022-12-01T04:34:05.751Z,23.60
2022-12-01T04:36:35.198Z,22.10
2022-12-01T04:39:03.171Z,22.33
2022-12-01T04:41:30.105Z,24.00
2022-12-01T04:43:57.044Z,20.80
2022-12-01T04:46:25.084Z,21.10
2022-12-01T04:48:52.417Z,17.83
2022-12-01T04:51:19.532Z,21.97
2022-12-01T04:53:46.495Z,22.67
2022-12-01T04:56:13.553Z,20.73
2022-12-01T04:58:40.686Z,21.30
2022-12-01T05:01:11.681Z,21.10
2022-12-01T05:03:41.425Z,23.60
2022-12-01T05:06:13.445Z,23.10
2022-12-01T05:08:41.407Z,21.23
2022-12-01T05:11:11.857Z,24.00
2022-12-01T05:13:40.224Z,20.53
2022-12-01T05:16:19.708Z,19.43
2022-12-01T05:19:18.198Z,20.00
2022-12-01T05:21:47.338Z,20.60
2022-12-01T05:24:15.182Z,17.83
2022-12-01T05:26:43.376Z,21.03
2022-12-01T05:29:11.091Z,19.07
2022-12-01T05:31:39.694Z,18.87
2022-12-01T05:34:07.878Z,16.80
2022-12-01T05:36:34.953Z,16.20
2022-12-01T05:39:01.862Z,17.40
2022-12-01T05:41:28.781Z,17.33
2022-12-01T05:43:55.761Z,16.47
2022-12-01T05:46:22.838Z,16.53
2022-12-01T05:48:49.870Z,15.93
2022-12-01T05:51:17.625Z,18.60
2022-12-01T05:53:45.073Z,17.10
2022-12-01T05:56:12.333Z,15.57
2022-12-01T05:58:39.298Z,16.67
2022-12-01T06:01:06.554Z,15.40
2022-12-01T06:03:33.671Z,15.30
2022-12-01T06:06:00.883Z,16.87
2022-12-01T06:08:28.111Z,16.57
2022-12-01T06:10:55.030Z,17.13
2022-12-01T06:13:21.892Z,16.27
2022-12-01T06:15:59.316Z,16.80
2022-12-01T06:18:27.546Z,16.00
2022-12-01T06:20:54.476Z,17.47
2022-12-01T06:23:22.713Z,18.60
2022-12-01T06:25:51.209Z,17.20
2022-12-01T06:28:18.389Z,19.50
2022-12-01T06:30:45.581Z,17.30
2022-12-01T06:33:12.594Z,18.70
2022-12-01T06:35:39.617Z,17.70
2022-12-01T06:38:06.564Z,18.50
2022-12-01T06:40:33.576Z,17.17
2022-12-01T06:43:05.605Z,17.80
2022-12-01T06:45:32.704Z,16.60
2022-12-01T06:47:59.640Z,16.53
2022-12-01T06:50:26.557Z,17.80
2022-12-01T06:52:54.915Z,20.20
2022-12-01T06:55:22.052Z,17.80
2022-12-01T06:57:49.403Z,16.20
2022-12-01T07:00:16.858Z,17.17
2022-12-01T07:02:44.334Z,19.87
2022-12-01T07:05:11.310Z,20.80
2022-12-01T07:07:39.586Z,20.53
2022-12-01T07:10:08.245Z,17.80
2022-12-01T07:12:35.304Z,17.50
2022-12-01T07:15:02.434Z,20.77
2022-12-01T07:17:29.867Z,19.00
2022-12-01T07:19:57.167Z,18.07
2022-12-01T07:22:29.474Z,19.70
2022-12-01T07:24:59.269Z,17.30
2022-12-01T07:27:30.702Z,20.40
2022-12-01T07:29:57.776Z,17.23
2022-12-01T07:32:24.762Z,16.63
2022-12-01T07:34:51.733Z,15.70
2022-12-01T07:37:18.688Z,17.30
2022-12-01T07:39:45.556Z,16.50
2022-12-01T07:42:12.612Z,18.03
2022-12-01T07:44:39.555Z,17.93
2022-12-01T07:47:06.677Z,16.43
2022-12-01T07:49:34.326Z,18.60
2022-12-01T07:52:01.392Z,17.23
2022-12-01T07:54:28.280Z,17.40
2022-12-01T07:56:55.125Z,16.33
2022-12-01T07:59:22.109Z,15.40
2022-12-01T08:01:49.071Z,16.40
2022-12-01T08:04:16.017Z,18.67
2022-12-01T08:06:43.002Z,17.13
2022-12-01T08:09:09.969Z,16.10
2022-12-01T08:11:36.981Z,15.30
2022-12-01T08:14:03.926Z,18.37
2022-12-01T08:16:31.416Z,14.90
2022-12-01T08:18:58.555Z,15.30
2022-12-01T08:21:25.734Z,15.40
2022-12-01T08:23:55.606Z,15.67
2022-12-01T08:26:24.992Z,15.40
2022-12-01T08:28:52.086Z,13.97
2022-12-01T08:31:29.718Z,15.00
2022-12-01T08:33:57.237Z,16.80
2022-12-01T08:36:25.292Z,13.53
2022-12-01T08:38:54.482Z,13.23
2022-12-01T08:41:22.515Z,12.37
2022-12-01T08:43:58.807Z,10.13
2022-12-01T08:46:29.558Z,13.83
2022-12-01T08:48:57.477Z,17.07
2022-12-01T08:51:24.789Z,18.60
2022-12-01T08:53:51.714Z,18.70
2022-12-01T08:56:31.238Z,17.67
2022-12-01T08:58:59.159Z,16.23
2022-12-01T09:01:28.657Z,16.70
2022-12-01T09:04:10.516Z,15.87
2022-12-01T09:06:43.507Z,18.00
2022-12-01T09:09:13.948Z,16.33
2022-12-01T09:11:43.616Z,18.00
2022-12-01T09:14:12.606Z,16.40
2022-12-01T09:16:40.753Z,15.73
2022-12-01T09:19:07.941Z,15.13
2022-12-01T09:21:37.357Z,17.80
2022-12-01T09:24:06.483Z,14.23
2022-12-01T09:26:34.281Z,21.27
2022-12-01T09:29:08.588Z,17.67
2022-12-01T09:31:36.285Z,20.97
2022-12-01T09:34:06.329Z,18.90
2022-12-01T09:36:35.581Z,22.80
2022-12-01T09:39:04.642Z,18.10
2022-12-01T09:41:44.565Z,18.73
2022-12-01T09:44:26.346Z,29.40
2022-12-01T09:47:29.150Z,25.77
2022-12-01T09:50:18.781Z,17.90
2022-12-01T09:52:54.425Z,19.73
2022-12-01T09:55:24.613Z,16.73
2022-12-01T09:57:55.706Z,18.70
2022-12-01T10:00:27.749Z,18.20
2022-12-01T10:03:09.768Z,18.03
2022-12-01T10:06:25.260Z,19.67
2022-12-01T10:08:52.711Z,20.37
2022-12-01T10:11:36.305Z,20.83
2022-12-01T10:14:04.625Z,18.07
2022-12-01T10:16:40.243Z,15.60
2022-12-01T10:19:32.906Z,19.13
2022-12-01T10:22:44.502Z,19.70
2022-12-01T10:25:21.975Z,22.13
2022-12-01T10:28:46.322Z,16.60
2022-12-01T10:31:19.200Z,17.33
2022-12-01T10:34:25.502Z,20.43
2022-12-01T10:36:52.504Z,17.00
2022-12-01T10:39:39.116Z,20.07
2022-12-01T10:42:47.234Z,21.77
2022-12-01T10:45:27.916Z,17.10
2022-12-01T10:48:22.576Z,20.70
2022-12-01T10:50:57.522Z,23.80
2022-12-01T10:53:25.247Z,20.23
2022-12-01T10:56:14.240Z,21.70
2022-12-01T10:58:54.693Z,19.50
2022-12-01T11:01:35.953Z,21.47
2022-12-01T11:04:06.076Z,22.10
2022-12-01T11:06:33.349Z,21.03
2022-12-01T11:09:07.195Z,20.00
2022-12-01T11:11:37.054Z,22.10
2022-12-01T11:14:17.585Z,21.10
2022-12-01T11:16:48.076Z,20.97
2022-12-01T11:19:34.582Z,23.30
2022-12-01T11:22:20.088Z,22.30
2022-12-01T11:24:53.191Z,22.43
2022-12-01T11:27:54.231Z,23.03
2022-12-01T11:30:27.600Z,21.53
2022-12-01T11:32:59.069Z,18.30
2022-12-01T11:35:36.761Z,22.77
2022-12-01T11:38:28.841Z,18.47
2022-12-01T11:40:55.589Z,21.30
2022-12-01T11:43:30.115Z,22.47
2022-12-01T11:46:04.773Z,20.90
2022-12-01T11:48:36.211Z,20.50
2022-12-01T11:51:08.188Z,21.60
2022-12-01T11:53:39.496Z,16.80
2022-12-01T11:56:28.724Z,14.77
2022-12-01T11:59:11.938Z,16.40
2022-12-01T12:02:07.131Z,18.93
2022-12-01T12:05:24.522Z,17.83
2022-12-01T12:08:23.025Z,15.80
2022-12-01T12:11:06.780Z,17.60
2022-12-01T12:14:10.018Z,18.00
2022-12-01T12:16:51.313Z,18.30
2022-12-01T12:19:52.246Z,18.37
2022-12-01T12:22:53.735Z,18.93
2022-12-01T12:25:56.289Z,19.63
2022-12-01T12:28:35.410Z,21.17
2022-12-01T12:31:02.260Z,19.07
2022-12-01T12:33:53.900Z,22.63
2022-12-01T12:36:38.641Z,19.30
2022-12-01T12:39:37.872Z,22.27
2022-12-01T12:42:20.085Z,18.13
2022-12-01T12:45:07.227Z,17.53
2022-12-01T12:48:07.362Z,17.63
2022-12-01T12:50:54.758Z,14.47
2022-12-01T12:53:28.228Z,19.40
2022-12-01T12:56:00.069Z,20.83
2022-12-01T12:58:37.827Z,18.83
2022-12-01T13:01:17.541Z,18.03
2022-12-01T13:03:53.271Z,18.40
2022-12-01T13:06:40.664Z,18.50
2022-12-01T13:09:27.950Z,18.37
2022-12-01T13:12:06.938Z,19.13
2022-12-01T13:14:44.070Z,19.43
2022-12-01T13:17:35.986Z,18.53
2022-12-01T13:20:05.859Z,19.60
2022-12-01T13:22:35.466Z,18.07
2022-12-01T13:25:04.446Z,20.80
2022-12-01T13:27:43.119Z,20.23
2022-12-01T13:30:24.294Z,19.00
2022-12-01T13:33:03.021Z,17.10
2022-12-01T13:35:40.042Z,17.90
2022-12-01T13:38:35.824Z,17.53
2022-12-01T13:41:30.523Z,18.03
2022-12-01T13:44:20.166Z,17.10
2022-12-01T13:46:47.124Z,19.60
2022-12-01T13:49:39.630Z,23.07
2022-12-01T13:52:21.882Z,20.93
2022-12-01T13:55:07.650Z,17.63
2022-12-01T13:57:57.130Z,18.57
2022-12-01T14:00:31.582Z,21.97
2022-12-01T14:03:16.653Z,19.13
2022-12-01T14:05:51.573Z,23.40
2022-12-01T14:08:31.550Z,18.10
2022-12-01T14:11:24.453Z,19.47
2022-12-01T14:14:11.668Z,19.60
2022-12-01T14:16:58.665Z,16.40
2022-12-01T14:19:35.970Z,19.57
2022-12-01T14:22:05.373Z,19.30
2022-12-01T14:24:38.491Z,19.37
2022-12-01T14:27:06.580Z,19.40
2022-12-01T14:29:44.711Z,18.50
2022-12-01T14:32:17.564Z,22.43
2022-12-01T14:34:44.925Z,19.37
2022-12-01T14:37:18.999Z,19.20
2022-12-01T14:40:07.861Z,18.33
2022-12-01T14:43:03.487Z,16.70
2022-12-01T14:45:43.070Z,19.50
2022-12-01T14:48:14.328Z,25.20
2022-12-01T14:50:58.706Z,20.23
2022-12-01T14:53:40.742Z,19.10
2022-12-01T14:56:17.840Z,18.73
2022-12-01T14:58:59.845Z,15.67
2022-12-01T15:01:37.230Z,17.93
2022-12-01T15:04:06.655Z,17.93
2022-12-01T15:06:35.919Z,14.20
2022-12-01T15:12:07.610Z,16.70
2022-12-01T15:14:47.850Z,20.20
2022-12-01T15:17:34.507Z,18.07
2022-12-01T15:20:02.005Z,17.77
2022-12-01T15:22:31.826Z,20.23
2022-12-01T15:25:15.575Z,17.40
2022-12-01T15:27:45.677Z,16.13
2022-12-01T15:30:16.822Z,20.67
2022-12-01T15:32:45.804Z,20.67
2022-12-01T15:35:23.589Z,19.20
2022-12-01T15:37:52.654Z,17.57
2022-12-01T15:41:00.144Z,19.50
2022-12-01T15:43:24.874Z,21.73
2022-12-01T15:45:55.851Z,18.73
2022-12-01T15:48:35.392Z,19.70
2022-12-01T15:51:18.237Z,19.00
2022-12-01T15:53:53.802Z,19.00
2022-12-01T15:56:52.047Z,25.10
2022-12-01T15:59:41.715Z,21.87
2022-12-01T16:02:33.223Z,20.50
2022-12-01T16:05:09.395Z,21.43
2022-12-01T16:08:12.194Z,22.93
2022-12-01T16:10:36.046Z,21.27
2022-12-01T16:13:46.916Z,19.33
2022-12-01T16:16:45.286Z,21.53
2022-12-01T16:19:12.109Z,21.90
2022-12-01T16:22:11.381Z,23.43
2022-12-01T16:24:49.165Z,22.93
2022-12-01T16:27:28.856Z,23.20
2022-12-01T16:30:06.348Z,22.53
2022-12-01T16:32:38.981Z,26.50
2022-12-01T16:35:30.525Z,25.03
2022-12-01T16:37:58.541Z,23.70
2022-12-01T16:40:26.181Z,22.90
2022-12-01T16:42:53.199Z,23.70
2022-12-01T16:45:21.144Z,28.93
2022-12-01T16:47:49.994Z,26.47
2022-12-01T16:50:19.757Z,27.53
2022-12-01T16:52:47.003Z,26.63
2022-12-01T16:55:29.506Z,24.90
2022-12-01T16:57:56.691Z,31.13
2022-12-01T17:00:24.062Z,30.07
2022-12-01T17:02:52.655Z,28.77
2022-12-01T17:05:20.057Z,30.20
2022-12-01T17:07:47.582Z,32.90
2022-12-01T17:10:15.107Z,29.40
2022-12-01T17:12:42.180Z,28.90
2022-12-01T17:15:10.294Z,27.17
2022-12-01T17:17:37.320Z,29.53
2022-12-01T17:20:06.792Z,32.57
2022-12-01T17:22:34.906Z,27.30
2022-12-01T17:25:02.546Z,30.73
2022-12-01T17:27:31.403Z,32.50
2022-12-01T17:29:59.788Z,28.00
2022-12-01T17:32:27.671Z,35.00
2022-12-01T17:34:54.856Z,33.73
2022-12-01T17:37:22.065Z,28.60
2022-12-01T17:39:50.500Z,33.23
2022-12-01T17:42:17.440Z,34.60
2022-12-01T17:44:44.724Z,32.40
2022-12-01T17:47:12.232Z,32.00
2022-12-01T17:49:39.234Z,30.40
2022-12-01T17:52:07.083Z,36.17
2022-12-01T17:54:34.418Z,32.87
2022-12-01T17:57:01.410Z,32.20
2022-12-01T17:59:28.321Z,29.70
2022-12-01T18:01:55.488Z,33.93
2022-12-01T18:04:22.414Z,39.13
2022-12-01T18:06:53.740Z,28.57
2022-12-01T18:09:21.660Z,35.43
2022-12-01T18:11:49.148Z,29.70
2022-12-01T18:14:19.203Z,36.40
2022-12-01T18:16:46.149Z,35.53
2022-12-01T18:19:13.483Z,32.90
2022-12-01T18:21:41.098Z,32.17
2022-12-01T18:24:09.234Z,30.87
2022-12-01T18:26:39.918Z,31.47
2022-12-01T18:29:18.465Z,33.20
2022-12-01T18:31:47.220Z,31.37
2022-12-01T18:34:14.209Z,33.10
2022-12-01T18:36:41.966Z,33.97
2022-12-01T18:39:11.083Z,30.17
2022-12-01T18:41:38.336Z,28.63
2022-12-01T18:44:05.643Z,29.27
2022-12-01T18:46:33.047Z,30.83
2022-12-01T18:49:03.110Z,31.10
2022-12-01T18:51:35.252Z,31.80
2022-12-01T18:54:04.450Z,30.60
2022-12-01T18:56:32.282Z,28.70
2022-12-01T18:59:02.664Z,30.90
2022-12-01T19:01:37.292Z,33.27
2022-12-01T19:04:05.828Z,30.63
2022-12-01T19:06:35.541Z,31.97
2022-12-01T19:09:05.303Z,29.70
2022-12-01T19:11:33.237Z,31.93
2022-12-01T19:14:00.201Z,31.77
2022-12-01T19:16:27.234Z,31.90
2022-12-01T19:18:54.223Z,29.90
2022-12-01T19:21:21.319Z,35.07
2022-12-01T19:23:49.230Z,30.53
2022-12-01T19:26:20.487Z,32.50
2022-12-01T19:28:48.213Z,28.70
2022-12-01T19:31:23.482Z,29.43
2022-12-01T19:33:52.513Z,32.40
2022-12-01T19:36:23.658Z,37.20
2022-12-01T19:38:51.608Z,33.97
2022-12-01T19:41:20.806Z,27.70
2022-12-01T19:43:48.371Z,29.43
2022-12-01T19:46:19.254Z,29.73
2022-12-01T19:48:47.294Z,28.20
2022-12-01T19:51:24.575Z,33.83
2022-12-01T19:53:52.926Z,34.60
2022-12-01T19:56:20.301Z,30.17
2022-12-01T19:58:47.246Z,30.10
2022-12-01T20:01:16.527Z,32.67
2022-12-01T20:03:47.809Z,30.80
2022-12-01T20:06:19.457Z,33.87
2022-12-01T20:08:46.771Z,28.63
2022-12-01T20:11:14.485Z,38.10
2022-12-01T20:13:44.396Z,31.87
2022-12-01T20:16:22.299Z,28.57
2022-12-01T20:18:51.156Z,31.93
2022-12-01T20:21:20.580Z,36.30
2022-12-01T20:23:58.752Z,33.73
2022-12-01T20:26:38.946Z,31.97
2022-12-01T20:29:10.557Z,37.77
2022-12-01T20:31:38.750Z,32.50
2022-12-01T20:34:14.346Z,28.57
2022-12-01T20:36:41.238Z,32.37
2022-12-01T20:39:09.346Z,32.10
2022-12-01T20:41:36.897Z,34.50
2022-12-01T20:44:07.561Z,32.60
2022-12-01T20:46:36.409Z,29.97
2022-12-01T20:49:05.224Z,34.50
2022-12-01T20:51:33.394Z,34.17
2022-12-01T20:56:49.340Z,37.77
2022-12-01T20:59:16.264Z,32.93
2022-12-01T21:01:43.243Z,32.30
2022-12-01T21:04:10.278Z,31.97
2022-12-01T21:06:37.247Z,31.03
2022-12-01T21:09:05.126Z,32.90
2022-12-01T21:12:02.561Z,29.87
2022-12-01T21:14:45.326Z,34.20
2022-12-01T21:17:33.763Z,32.70
2022-12-01T21:20:33.796Z,33.10
2022-12-01T21:23:12.762Z,34.33
2022-12-01T21:25:41.492Z,34.30
2022-12-01T21:28:25.932Z,36.00
2022-12-01T21:31:15.575Z,32.53
2022-12-01T21:33:43.030Z,35.80
2022-12-01T21:36:17.065Z,32.13
2022-12-01T21:38:45.060Z,31.77
2022-12-01T21:41:26.782Z,41.87
2022-12-01T21:44:05.220Z,40.77
2022-12-01T21:46:32.248Z,38.57
2022-12-01T21:49:01.377Z,35.63
2022-12-01T21:51:28.678Z,35.30
2022-12-01T21:53:56.901Z,38.70
2022-12-01T21:56:28.896Z,35.23
2022-12-01T21:58:59.543Z,36.63
2022-12-01T22:01:32.767Z,36.43
2022-12-01T22:04:02.904Z,42.33
2022-12-01T22:06:40.433Z,37.00
2022-12-01T22:09:35.753Z,38.70
2022-12-01T22:12:28.083Z,39.17
2022-12-01T22:15:01.162Z,35.23
2022-12-01T22:17:29.043Z,35.70
2022-12-01T22:20:02.552Z,36.80
2022-12-01T22:22:30.615Z,40.57
2022-12-01T22:25:27.155Z,42.13
2022-12-01T22:27:54.534Z,41.17
2022-12-01T22:30:23.929Z,43.10
2022-12-01T22:33:00.890Z,39.90
2022-12-01T22:35:40.301Z,35.53
2022-12-01T22:38:07.177Z,39.67
2022-12-01T22:40:48.570Z,38.23
2022-12-01T22:43:18.431Z,34.57
2022-12-01T22:46:15.396Z,42.33
2022-12-01T22:48:57.685Z,33.43
2022-12-01T22:51:49.682Z,38.43
2022-12-01T22:54:16.475Z,41.87
2022-12-01T22:56:50.805Z,33.97
2022-12-01T22:59:37.701Z,34.20
2022-12-01T23:02:34.509Z,35.37
2022-12-01T23:05:27.790Z,34.80
2022-12-01T23:07:55.720Z,40.53
2022-12-01T23:10:34.102Z,33.60
2022-12-01T23:13:29.372Z,39.93
2022-12-01T23:15:56.718Z,37.67
2022-12-01T23:18:33.499Z,40.60
2022-12-01T23:21:01.933Z,44.80
2022-12-01T23:23:38.163Z,41.03
2022-12-01T23:26:08.118Z,40.70
2022-12-01T23:28:39.102Z,42.37
2022-12-01T23:31:06.138Z,41.50
2022-12-01T23:33:35.210Z,41.30
2022-12-01T23:36:24.601Z,37.83
2022-12-01T23:38:57.805Z,35.77
2022-12-01T23:41:41.262Z,37.37
2022-12-01T23:44:46.346Z,38.47
2022-12-01T23:47:29.291Z,41.00
2022-12-01T23:50:04.074Z,35.57
2022-12-01T23:52:35.797Z,39.07
2022-12-01T23:55:15.437Z,38.20
2022-12-01T23:57:43.094Z,40.53
